Time;durP1;ratioP1;P1;durP2;ratioP2;P2;SDS_P1;SDS_P2;PMS_P1;PMS_P2;Temp;Humidity;BMP_temperature;BMP_pressure;BME280_temperature;BME280_humidity;BME280_pressure;Samples;Min_cycle;Max_cycle;Signal;HPM_P1;HPM_P2
2022/10/06 00:01:07;;;;;;;;;;;;;;;15.08;66.24;101442.31;5067995;28;20401;-53
2022/10/06 00:03:32;;;;;;;;;;;;;;;15.07;66.13;101437.09;5070744;28;20382;-55
2022/10/06 00:05:59;;;;;;;;;;;;;;;15.06;66.24;101441.56;5064769;28;20343;-53
2022/10/06 00:08:25;;;;;;;;;;;;;;;15.05;66.27;101447.00;5059155;28;20280;-54
2022/10/06 00:10:53;;;;;;;;;;;;;;;15.04;66.25;101443.47;5063984;28;20373;-54
2022/10/06 00:13:19;;;;;;;;;;;;;;;15.03;66.31;101449.72;5066807;28;19927;-54
2022/10/06 00:15:44;;;;;;;;;;;;;;;15.02;66.39;101455.13;5067512;28;19928;-53
2022/10/06 00:18:09;;;;;;;;;;;;;;;15.02;66.26;101447.19;5066765;28;19920;-52
2022/10/06 00:20:35;;;;;;;;;;;;;;;15.03;66.37;101452.38;5059126;28;19928;-53
2022/10/06 00:23:00;;;;;;;;;;;;;;;15.06;66.23;101451.31;5063403;28;20014;-52
2022/10/06 00:25:27;;;;;;;;;;;;;;;15.09;66.16;101456.41;5062711;28;19939;-53
2022/10/06 00:27:52;;;;;;;;;;;;;;;15.12;66.20;101458.03;5067172;28;19920;-53
2022/10/06 00:30:25;;;;;;;;;;;;;;;15.14;66.15;101462.28;5067353;28;19920;-52
2022/10/06 00:32:52;;;;;;;;;;;;;;;15.16;66.12;101463.03;5068556;28;20396;-53
2022/10/06 00:35:17;;;;;;;;;;;;;;;15.19;66.10;101467.28;5069190;28;20266;-54
2022/10/06 00:37:43;;;;;;;;;;;;;;;15.23;66.04;101471.44;5064443;28;20422;-53
2022/10/06 00:40:09;;;;;;;;;;;;;;;15.27;66.08;101474.72;5069294;28;19913;-52
2022/10/06 00:42:47;;;;;;;;;;;;;;;15.28;66.11;101476.41;5067086;28;19924;-54
2022/10/06 00:45:12;;;;;;;;;;;;;;;15.29;66.19;101467.50;5066333;28;19979;-52
2022/10/06 00:47:38;;;;;;;;;;;;;;;15.31;66.25;101466.44;5067838;28;20395;-53
2022/10/06 00:50:03;;;;;;;;;;;;;;;15.33;66.30;101466.38;5064640;28;19951;-54
2022/10/06 00:52:30;;;;;;;;;;;;;;;15.34;66.27;101473.38;5060580;28;19944;-53
2022/10/06 00:54:57;;;;;;;;;;;;;;;15.37;66.23;101478.44;5065700;28;19959;-53
2022/10/06 00:57:24;;;;;;;;;;;;;;;15.37;66.31;101474.00;5065171;28;19916;-53
2022/10/06 00:59:49;;;;;;;;;;;;;;;15.39;66.32;101474.75;5066199;28;19920;-52
2022/10/06 01:02:20;;;;;;;;;;;;;;;15.43;66.21;101477.22;5062944;28;19929;-53
2022/10/06 01:04:47;;;;;;;;;;;;;;;15.45;66.24;101478.81;5061734;28;20342;-52
2022/10/06 01:07:13;;;;;;;;;;;;;;;15.46;66.11;101475.19;5064005;28;19946;-52
2022/10/06 01:09:39;;;;;;;;;;;;;;;15.49;66.22;101485.63;5063567;28;19979;-53
2022/10/06 01:12:06;;;;;;;;;;;;;;;15.49;66.24;101485.63;5065952;28;19929;-53
2022/10/06 01:14:32;;;;;;;;;;;;;;;15.50;66.35;101489.09;5065771;28;19960;-52
2022/10/06 01:17:16;;;;;;;;;;;;;;;15.51;66.27;101488.16;5064275;28;20451;-53
2022/10/06 01:19:53;;;;;;;;;;;;;;;15.51;66.28;101488.97;5062451;28;19924;-56
2022/10/06 01:22:37;;;;;;;;;;;;;;;15.51;66.43;101494.28;5060320;28;20367;-53
2022/10/06 01:25:06;;;;;;;;;;;;;;;15.52;66.33;101488.03;5064092;28;20301;-53
2022/10/06 01:27:32;;;;;;;;;;;;;;;15.55;66.25;101500.25;5066380;28;19928;-53
2022/10/06 01:29:58;;;;;;;;;;;;;;;15.55;66.18;101500.25;5063606;28;20030;-53
2022/10/06 01:32:24;;;;;;;;;;;;;;;15.55;66.24;101494.97;5067540;28;20015;-52
2022/10/06 01:34:49;;;;;;;;;;;;;;;15.55;66.38;101493.13;5060231;28;20324;-53
2022/10/06 01:37:15;;;;;;;;;;;;;;;15.57;66.46;101498.38;5053603;28;19924;-53
2022/10/06 01:39:40;;;;;;;;;;;;;;;15.58;66.40;101497.38;5063264;28;19920;-55
2022/10/06 01:42:06;;;;;;;;;;;;;;;15.58;66.36;101499.19;5058509;28;20396;-53
2022/10/06 01:44:31;;;;;;;;;;;;;;;15.59;66.38;101503.56;5058494;28;19940;-53
2022/10/06 01:46:56;;;;;;;;;;;;;;;15.58;66.47;101496.53;5062326;28;19920;-54
2022/10/06 01:49:21;;;;;;;;;;;;;;;15.59;66.44;101506.22;5066217;28;19935;-54
2022/10/06 01:51:47;;;;;;;;;;;;;;;15.59;66.44;101507.03;5060837;28;19952;-54
2022/10/06 01:54:13;;;;;;;;;;;;;;;15.59;66.49;101517.66;5057350;28;20347;-53
2022/10/06 01:56:38;;;;;;;;;;;;;;;15.59;66.44;101511.50;5064031;28;19928;-52
2022/10/06 01:59:03;;;;;;;;;;;;;;;15.58;66.53;101512.47;5061409;28;20526;-53
2022/10/06 02:01:29;;;;;;;;;;;;;;;15.55;66.55;101522.31;5061478;28;19932;-53
2022/10/06 02:03:54;;;;;;;;;;;;;;;15.54;66.62;101515.31;5058871;28;19921;-53
2022/10/06 02:06:19;;;;;;;;;;;;;;;15.53;66.65;101518.06;5062478;28;19921;-54
2022/10/06 02:08:45;;;;;;;;;;;;;;;15.52;66.64;101511.06;5053287;28;19952;-53
2022/10/06 02:11:11;;;;;;;;;;;;;;;15.51;66.71;101515.50;5062049;28;19931;-53
2022/10/06 02:13:36;;;;;;;;;;;;;;;15.50;66.74;101508.50;5064210;28;20365;-53
2022/10/06 02:16:05;;;;;;;;;;;;;;;15.50;66.88;101508.50;5060970;28;20019;-53
2022/10/06 02:18:30;;;;;;;;;;;;;;;15.52;66.85;101511.06;5061734;28;19997;-52
2022/10/06 02:20:55;;;;;;;;;;;;;;;15.52;66.79;101509.25;5062278;28;19924;-52
2022/10/06 02:23:21;;;;;;;;;;;;;;;15.53;66.82;101515.44;5065414;28;20225;-54
2022/10/06 02:25:46;;;;;;;;;;;;;;;15.53;66.98;101524.22;5064204;28;19928;-54
2022/10/06 02:28:11;;;;;;;;;;;;;;;15.55;66.88;101522.31;5064917;28;19943;-53
2022/10/06 02:30:37;;;;;;;;;;;;;;;15.55;66.91;101527.63;5059455;28;19924;-52
2022/10/06 02:33:02;;;;;;;;;;;;;;;15.55;67.02;101524.97;5060535;28;19932;-52
2022/10/06 02:35:27;;;;;;;;;;;;;;;15.55;67.03;101532.09;5062893;28;19958;-55
2022/10/06 02:37:53;;;;;;;;;;;;;;;15.55;67.24;101532.94;5061486;28;19928;-54
2022/10/06 02:40:18;;;;;;;;;;;;;;;15.57;67.25;101539.94;5065289;28;19951;-54
2022/10/06 02:42:44;;;;;;;;;;;;;;;15.57;67.17;101537.28;5056608;28;20317;-53
2022/10/06 02:45:09;;;;;;;;;;;;;;;15.59;67.24;101538.03;5062298;28;19927;-54
2022/10/06 02:47:35;;;;;;;;;;;;;;;15.59;67.22;101541.53;5057107;28;20325;-53
2022/10/06 02:50:02;;;;;;;;;;;;;;;15.61;67.33;101546.75;5065042;28;19928;-53
2022/10/06 02:52:33;;;;;;;;;;;;;;;15.62;67.20;101537.84;5051119;28;19916;-53
2022/10/06 02:54:58;;;;;;;;;;;;;;;15.62;67.32;101537.84;5065736;28;20015;-53
2022/10/06 02:57:24;;;;;;;;;;;;;;;15.63;67.20;101539.53;5064221;28;20022;-52
2022/10/06 02:59:49;;;;;;;;;;;;;;;15.65;67.25;101538.47;5062913;28;19960;-53
2022/10/06 03:02:14;;;;;;;;;;;;;;;15.65;67.37;101538.47;5064455;28;20313;-53
2022/10/06 03:04:40;;;;;;;;;;;;;;;15.67;67.30;101557.81;5061473;28;19929;-54
2022/10/06 03:07:05;;;;;;;;;;;;;;;15.68;67.24;101554.19;5057914;28;20018;-54
2022/10/06 03:09:30;;;;;;;;;;;;;;;15.68;67.54;101555.97;5063056;28;19931;-53
2022/10/06 03:11:56;;;;;;;;;;;;;;;15.69;67.34;101566.50;5063114;28;19967;-54
2022/10/06 03:14:21;;;;;;;;;;;;;;;15.70;67.52;101560.25;5059297;28;19926;-52
2022/10/06 03:16:46;;;;;;;;;;;;;;;15.72;67.42;101568.09;5061627;28;20306;-55
2022/10/06 03:19:12;;;;;;;;;;;;;;;15.76;67.44;101572.25;5066108;28;20313;-53
2022/10/06 03:21:39;;;;;;;;;;;;;;;15.79;67.43;101572.06;5059045;28;20370;-52
2022/10/06 03:24:04;;;;;;;;;;;;;;;15.82;67.42;101577.13;5055383;28;19943;-55
2022/10/06 03:26:34;;;;;;;;;;;;;;;15.85;67.46;101586.75;5061483;28;20388;-54
2022/10/06 03:28:59;;;;;;;;;;;;;;;15.90;67.37;101583.78;5068397;28;20372;-53
2022/10/06 03:31:25;;;;;;;;;;;;;;;15.93;67.39;101587.06;5066126;28;19920;-52
2022/10/06 03:33:51;;;;;;;;;;;;;;;15.96;67.45;101584.22;5065356;28;19928;-54
2022/10/06 03:36:18;;;;;;;;;;;;;;;15.99;67.44;101593.78;5063714;28;20163;-53
2022/10/06 03:38:43;;;;;;;;;;;;;;;16.02;67.33;101598.88;5070088;28;20402;-53
2022/10/06 03:41:10;;;;;;;;;;;;;;;16.05;67.29;101604.00;5067320;28;20007;-53
2022/10/06 03:43:36;;;;;;;;;;;;;;;16.08;67.26;101610.88;5059326;28;19916;-53
2022/10/06 03:46:02;;;;;;;;;;;;;;;16.11;67.39;101616.84;5061596;28;21004;-52
2022/10/06 03:48:27;;;;;;;;;;;;;;;16.14;67.40;101629.91;5066247;28;20388;-52
2022/10/06 03:50:54;;;;;;;;;;;;;;;16.15;67.38;101641.38;5062547;28;20494;-54
2022/10/06 03:53:24;;;;;;;;;;;;;;;16.20;67.22;101664.97;5053727;28;19920;-53
2022/10/06 03:55:49;;;;;;;;;;;;;;;16.23;67.34;101675.41;5063138;28;19932;-55
2022/10/06 03:58:18;;;;;;;;;;;;;;;16.25;67.47;101673.50;5065638;28;19925;-55
2022/10/06 04:00:45;;;;;;;;;;;;;;;16.30;67.40;101684.63;5060616;28;20011;-54
2022/10/06 04:03:11;;;;;;;;;;;;;;;16.32;67.46;101688.03;5060853;28;19928;-54
2022/10/06 04:05:36;;;;;;;;;;;;;;;16.33;67.44;101691.56;5064117;28;19935;-53
2022/10/06 04:08:01;;;;;;;;;;;;;;;16.34;67.75;101695.91;5068510;28;19928;-53
2022/10/06 04:10:26;;;;;;;;;;;;;;;16.34;67.73;101683.47;5060240;28;19924;-53
2022/10/06 04:12:52;;;;;;;;;;;;;;;16.34;67.93;101674.66;5056075;28;19935;-54
2022/10/06 04:15:17;;;;;;;;;;;;;;;16.34;67.81;101683.47;5054794;28;20007;-53
2022/10/06 04:17:42;;;;;;;;;;;;;;;16.34;68.08;101694.09;5060097;28;20014;-52
2022/10/06 04:20:08;;;;;;;;;;;;;;;16.36;68.01;101709.94;5052983;28;20301;-55
2022/10/06 04:22:33;;;;;;;;;;;;;;;16.35;67.99;101719.72;5064918;28;19925;-53
2022/10/06 04:24:58;;;;;;;;;;;;;;;16.35;68.01;101721.50;5067242;28;19920;-52
2022/10/06 04:27:26;;;;;;;;;;;;;;;16.34;68.25;101728.63;5057000;28;19928;-53
2022/10/06 04:29:52;;;;;;;;;;;;;;;16.33;68.08;101732.25;5064124;28;20380;-52
2022/10/06 04:32:17;;;;;;;;;;;;;;;16.35;68.11;101738.31;5062202;28;20377;-53
2022/10/06 04:34:42;;;;;;;;;;;;;;;16.34;68.30;101739.25;5063002;28;19924;-53
2022/10/06 04:37:09;;;;;;;;;;;;;;;16.34;68.24;101741.03;5060536;28;19928;-52
2022/10/06 04:39:36;;;;;;;;;;;;;;;16.34;68.10;101738.38;5064997;28;20019;-53
2022/10/06 04:42:02;;;;;;;;;;;;;;;16.34;68.23;101741.91;5065221;28;19954;-52
2022/10/06 04:44:27;;;;;;;;;;;;;;;16.36;68.15;101753.28;5057724;28;19958;-53
2022/10/06 04:46:52;;;;;;;;;;;;;;;16.36;68.09;101734.69;5060336;28;19920;-54
2022/10/06 04:49:18;;;;;;;;;;;;;;;16.36;68.04;101752.41;5061138;28;20665;-53
2022/10/06 04:51:43;;;;;;;;;;;;;;;16.37;67.91;101767.41;5057689;28;19924;-52
2022/10/06 04:54:09;;;;;;;;;;;;;;;16.37;68.08;101760.31;5064856;28;20371;-52
2022/10/06 04:56:34;;;;;;;;;;;;;;;16.36;68.11;101768.34;5068289;28;19932;-53
2022/10/06 04:58:59;;;;;;;;;;;;;;;16.35;68.08;101779.94;5064740;28;19916;-53
2022/10/06 05:01:29;;;;;;;;;;;;;;;16.35;67.99;101778.16;5054474;28;20325;-53
2022/10/06 05:03:56;;;;;;;;;;;;;;;16.36;67.86;101781.63;5060038;28;20380;-53
2022/10/06 05:06:31;;;;;;;;;;;;;;;16.38;67.83;101790.38;5061930;28;19931;-53
2022/10/06 05:08:58;;;;;;;;;;;;;;;16.35;67.46;101783.47;5068890;28;19921;-53
2022/10/06 05:11:23;;;;;;;;;;;;;;;16.35;67.23;101794.09;5067032;28;19923;-54
2022/10/06 05:13:49;;;;;;;;;;;;;;;16.35;66.81;101802.06;5046219;28;19925;-52
2022/10/06 05:16:15;;;;;;;;;;;;;;;16.35;66.27;101812.69;5060020;28;20377;-52
2022/10/06 05:18:41;;;;;;;;;;;;;;;16.36;66.32;101837.41;5063563;28;19917;-53
2022/10/06 05:21:26;;;;;;;;;;;;;;;16.37;64.94;101832.03;5060761;28;19931;-52
2022/10/06 05:23:52;;;;;;;;;;;;;;;16.37;63.63;101840.00;5058471;28;19920;-52
2022/10/06 05:26:18;;;;;;;;;;;;;;;16.38;62.97;101849.66;5063570;28;20395;-53
2022/10/06 05:28:43;;;;;;;;;;;;;;;16.38;62.74;101847.00;5062816;28;19920;-52
2022/10/06 05:31:19;;;;;;;;;;;;;;;16.40;62.10;101853.09;5063175;28;19928;-52
2022/10/06 05:33:45;;;;;;;;;;;;;;;16.38;62.04;101849.66;5055781;28;19931;-55
2022/10/06 05:36:12;;;;;;;;;;;;;;;16.38;61.65;101865.59;5060380;28;19924;-55
2022/10/06 05:38:37;;;;;;;;;;;;;;;16.38;61.53;101873.56;5058426;28;20156;-56
2022/10/06 05:41:04;;;;;;;;;;;;;;;16.38;61.68;101867.38;5052328;28;20030;-54
2022/10/06 05:43:30;;;;;;;;;;;;;;;16.37;61.54;101882.50;5055407;28;20309;-55
2022/10/06 05:45:57;;;;;;;;;;;;;;;16.36;61.51;101883.44;5055157;28;20083;-55
2022/10/06 05:48:22;;;;;;;;;;;;;;;16.36;61.62;101895.84;5063851;28;20130;-53
2022/10/06 05:50:56;;;;;;;;;;;;;;;16.35;61.53;101908.28;5062470;28;19925;-54
2022/10/06 05:53:21;;;;;;;;;;;;;;;16.34;61.72;101911.91;5063615;28;19927;-56
2022/10/06 05:55:46;;;;;;;;;;;;;;;16.35;61.63;101918.91;5062274;28;19924;-54
2022/10/06 05:58:12;;;;;;;;;;;;;;;16.34;61.76;101933.16;5066715;28;19920;-52
2022/10/06 06:00:37;;;;;;;;;;;;;;;16.34;61.78;101927.84;5065779;28;19921;-54
2022/10/06 06:03:02;;;;;;;;;;;;;;;16.34;61.42;101948.22;5066363;28;20551;-52
2022/10/06 06:05:28;;;;;;;;;;;;;;;16.30;61.19;101948.44;5064689;28;19925;-53
2022/10/06 06:07:53;;;;;;;;;;;;;;;16.29;61.07;101956.47;5068667;28;19912;-57
2022/10/06 06:10:18;;;;;;;;;;;;;;;16.27;60.92;101955.72;5066833;28;19928;-54
2022/10/06 06:12:46;;;;;;;;;;;;;;;16.28;60.92;101973.34;5066438;28;19924;-54
2022/10/06 06:17:55;;;;;;;;;;;;;;;16.25;60.85;101987.69;5068413;28;19969;-53
2022/10/06 06:20:20;;;;;;;;;;;;;;;16.24;60.78;102001.06;5063332;28;20089;-54
2022/10/06 06:22:50;;;;;;;;;;;;;;;16.23;60.71;102010.00;5061642;28;19979;-56
2022/10/06 06:25:15;;;;;;;;;;;;;;;16.20;60.59;102020.78;5063317;28;20621;-55
2022/10/06 06:27:40;;;;;;;;;;;;;;;16.18;60.75;102014.72;5066498;28;19921;-53
2022/10/06 06:30:08;;;;;;;;;;;;;;;16.15;60.66;102015.78;5068076;28;20275;-53
2022/10/06 06:32:33;;;;;;;;;;;;;;;16.12;60.80;102022.09;5066291;28;19955;-54
2022/10/06 06:34:59;;;;;;;;;;;;;;;16.11;60.76;102033.66;5060337;28;21104;-52
2022/10/06 06:37:24;;;;;;;;;;;;;;;16.06;60.69;102025.16;5067395;28;19978;-53
2022/10/06 06:39:49;;;;;;;;;;;;;;;16.05;60.81;102049.13;5063673;28;19974;-52
2022/10/06 06:42:15;;;;;;;;;;;;;;;16.03;60.81;102053.69;5067859;28;19928;-53
2022/10/06 06:44:40;;;;;;;;;;;;;;;16.03;60.60;102053.69;5063742;28;19956;-55
2022/10/06 06:47:06;;;;;;;;;;;;;;;16.00;60.76;102063.53;5066287;28;20423;-54
2022/10/06 06:49:31;;;;;;;;;;;;;;;15.99;60.93;102076.88;5059738;28;20494;-54
2022/10/06 06:51:57;;;;;;;;;;;;;;;15.96;60.84;102069.09;5066216;28;19924;-56
2022/10/06 06:54:23;;;;;;;;;;;;;;;15.95;60.85;102070.06;5067875;28;19924;-53
2022/10/06 06:56:48;;;;;;;;;;;;;;;15.93;60.86;102075.47;5064525;28;20003;-54
2022/10/06 06:59:14;;;;;;;;;;;;;;;15.94;60.79;102073.69;5061217;28;19924;-53
2022/10/06 07:01:44;;;;;;;;;;;;;;;15.95;60.79;102080.69;5066938;28;19923;-53
2022/10/06 07:04:10;;;;;;;;;;;;;;;15.94;60.83;102089.59;5063818;28;20025;-54
2022/10/06 07:06:36;;;;;;;;;;;;;;;15.92;60.75;102091.50;5061258;28;20340;-53
2022/10/06 07:09:02;;;;;;;;;;;;;;;15.91;60.83;102105.69;5063220;28;19946;-54
2022/10/06 07:11:31;;;;;;;;;;;;;;;15.91;60.57;102111.00;5067411;28;19913;-55
2022/10/06 07:14:00;;;;;;;;;;;;;;;15.90;60.80;102111.97;5065758;28;20309;-54
2022/10/06 07:27:23;;;;;;;;;;;;;;;15.94;60.80;102135.56;5064453;28;19931;-54
2022/10/06 07:29:53;;;;;;;;;;;;;;;15.95;60.88;102128.47;5067954;28;19920;-53
2022/10/06 07:32:22;;;;;;;;;;;;;;;15.95;60.69;102139.94;5064928;28;20529;-52
2022/10/06 07:34:48;;;;;;;;;;;;;;;15.94;60.31;102153.31;5057199;28;19920;-54
2022/10/06 07:37:13;;;;;;;;;;;;;;;15.93;60.36;102156.91;5064782;28;20396;-53
2022/10/06 07:39:38;;;;;;;;;;;;;;;15.93;60.39;102152.44;5063380;28;19924;-54
2022/10/06 07:42:14;;;;;;;;;;;;;;;15.95;60.26;102147.91;5063637;28;20936;-55
2022/10/06 07:44:42;;;;;;;;;;;;;;;15.95;60.36;102165.63;5064724;28;19920;-54
2022/10/06 07:47:07;;;;;;;;;;;;;;;15.98;60.38;102170.75;5067547;28;19924;-53
2022/10/06 07:49:33;;;;;;;;;;;;;;;15.98;60.08;102171.63;5066075;28;19921;-56
2022/10/06 07:51:58;;;;;;;;;;;;;;;15.99;59.96;102175.13;5061474;28;19921;-56
2022/10/06 07:54:24;;;;;;;;;;;;;;;15.99;59.80;102183.06;5061554;28;19936;-52
2022/10/06 07:56:50;;;;;;;;;;;;;;;15.99;59.71;102194.56;5061068;28;19951;-56
2022/10/06 07:59:16;;;;;;;;;;;;;;;15.99;59.75;102178.63;5062922;28;19967;-53
2022/10/06 08:01:43;;;;;;;;;;;;;;;16.03;59.91;102192.59;5066922;28;19923;-52
2022/10/06 08:04:08;;;;;;;;;;;;;;;16.10;59.81;102206.34;5067789;28;19946;-54
2022/10/06 08:06:33;;;;;;;;;;;;;;;16.14;59.55;102211.41;5059616;28;19920;-53
2022/10/06 08:08:59;;;;;;;;;;;;;;;16.18;59.51;102219.19;5065870;28;19923;-54
2022/10/06 08:11:24;;;;;;;;;;;;;;;16.20;59.34;102227.94;5070187;28;19946;-53
2022/10/06 08:13:50;;;;;;;;;;;;;;;16.25;59.20;102233.84;5069311;28;19923;-55
2022/10/06 08:16:20;;;;;;;;;;;;;;;16.26;59.15;102223.13;5069163;28;20217;-54
2022/10/06 08:18:49;;;;;;;;;;;;;;;16.25;58.90;102233.84;5062248;28;19924;-55
2022/10/06 08:21:16;;;;;;;;;;;;;;;16.23;58.45;102243.69;5067444;28;20403;-53
2022/10/06 08:23:42;;;;;;;;;;;;;;;16.21;58.32;102261.50;5068587;28;19925;-53
2022/10/06 08:26:08;;;;;;;;;;;;;;;16.15;58.08;102237.00;5070068;28;19987;-55
2022/10/06 08:28:35;;;;;;;;;;;;;;;16.16;57.72;102259.13;5065917;28;19920;-53
2022/10/06 08:31:05;;;;;;;;;;;;;;;16.15;58.00;102257.41;5065511;28;19924;-54
2022/10/06 08:33:30;;;;;;;;;;;;;;;16.17;58.01;102275.91;5065421;28;20407;-53
2022/10/06 08:36:00;;;;;;;;;;;;;;;16.17;57.74;102275.91;5069983;28;19925;-54
2022/10/06 08:38:26;;;;;;;;;;;;;;;16.18;57.66;102261.69;5066961;28;20320;-53
2022/10/06 08:40:51;;;;;;;;;;;;;;;16.19;57.68;102266.03;5065464;28;19939;-53
2022/10/06 08:43:18;;;;;;;;;;;;;;;16.18;57.70;102278.47;5065804;28;19970;-53
2022/10/06 08:45:45;;;;;;;;;;;;;;;16.21;57.70;102288.91;5068483;28;19916;-53
2022/10/06 08:48:13;;;;;;;;;;;;;;;16.22;57.31;102284.47;5065235;28;19931;-53
2022/10/06 08:50:57;;;;;;;;;;;;;;;16.27;57.41;102287.69;5065021;28;19916;-54
2022/10/06 08:53:28;;;;;;;;;;;;;;;16.33;57.15;102313.06;5070348;28;19967;-53
2022/10/06 08:56:04;;;;;;;;;;;;;;;16.38;57.27;102305.69;5066038;28;19929;-55
2022/10/06 08:58:39;;;;;;;;;;;;;;;16.44;57.17;102315.97;5068003;28;20134;-56
2022/10/06 09:01:22;;;;;;;;;;;;;;;16.49;56.89;102307.72;5068796;28;20201;-54
2022/10/06 09:03:50;;;;;;;;;;;;;;;16.51;56.20;102316.47;5064659;28;19962;-55
2022/10/06 09:06:15;;;;;;;;;;;;;;;16.52;56.41;102310.22;5067472;28;19925;-55
2022/10/06 09:08:54;;;;;;;;;;;;;;;16.52;56.49;102313.69;5069281;28;19916;-55
2022/10/06 09:11:34;;;;;;;;;;;;;;;16.54;56.49;102321.59;5068770;28;19970;-54
2022/10/06 09:14:02;;;;;;;;;;;;;;;16.55;56.26;102324.16;5067872;28;19986;-55
2022/10/06 09:16:31;;;;;;;;;;;;;;;16.53;55.49;102327.88;5066089;28;20062;-55
2022/10/06 09:19:18;;;;;;;;;;;;;;;16.52;55.58;102323.50;5067819;28;19927;-54
2022/10/06 09:21:44;;;;;;;;;;;;;;;16.56;55.64;102327.69;5065494;28;20411;-56
2022/10/06 09:24:12;;;;;;;;;;;;;;;16.55;55.61;102323.31;5067175;28;19924;-56
2022/10/06 09:26:42;;;;;;;;;;;;;;;16.58;55.57;102331.09;5069811;28;20392;-55
2022/10/06 09:29:07;;;;;;;;;;;;;;;16.61;55.37;102333.56;5067588;28;19929;-53
2022/10/06 09:31:37;;;;;;;;;;;;;;;16.62;55.47;102327.31;5064336;28;20277;-55
2022/10/06 09:34:08;;;;;;;;;;;;;;;16.64;55.67;102349.34;5057119;28;20050;-54
2022/10/06 09:36:53;;;;;;;;;;;;;;;16.66;55.28;102338.63;5066934;28;20008;-53
2022/10/06 09:39:25;;;;;;;;;;;;;;;16.67;54.55;102345.66;5065243;28;19961;-52
2022/10/06 09:41:53;;;;;;;;;;;;;;;16.65;54.48;102340.44;5060634;28;19946;-53
2022/10/06 09:44:26;;;;;;;;;;;;;;;16.65;54.58;102345.75;5060086;28;20375;-53
2022/10/06 09:46:52;;;;;;;;;;;;;;;16.67;54.41;102351.84;5066107;28;19924;-52
2022/10/06 09:49:19;;;;;;;;;;;;;;;16.70;54.48;102350.78;5062059;28;19966;-53
2022/10/06 09:51:53;;;;;;;;;;;;;;;16.75;54.33;102356.69;5067391;28;19927;-56
2022/10/06 09:54:19;;;;;;;;;;;;;;;16.75;54.22;102357.53;5061159;28;20426;-54
2022/10/06 09:56:44;;;;;;;;;;;;;;;16.76;54.26;102364.56;5066792;28;19928;-56
2022/10/06 09:59:21;;;;;;;;;;;;;;;16.78;54.36;102372.47;5062143;28;20095;-53
2022/10/06 10:01:54;;;;;;;;;;;;;;;16.81;54.43;102372.28;5064666;28;20397;-53
2022/10/06 10:04:30;;;;;;;;;;;;;;;16.83;54.22;102383.69;5067984;28;20339;-53
2022/10/06 10:07:13;;;;;;;;;;;;;;;16.87;54.17;102387.00;5066679;28;19991;-53
2022/10/06 10:09:40;;;;;;;;;;;;;;;16.91;53.99;102399.19;5067704;28;20007;-52
2022/10/06 10:12:26;;;;;;;;;;;;;;;16.92;53.71;102391.13;5066931;28;20009;-53
2022/10/06 10:15:15;;;;;;;;;;;;;;;16.94;53.64;102409.66;5064147;28;19924;-52
2022/10/06 10:17:48;;;;;;;;;;;;;;;16.94;53.45;102388.38;5046590;28;19928;-54
2022/10/06 10:20:27;;;;;;;;;;;;;;;16.95;53.29;102403.41;5063976;28;20355;-55
2022/10/06 10:22:52;;;;;;;;;;;;;;;16.96;52.68;102401.59;5067748;28;19916;-55
2022/10/06 10:25:24;;;;;;;;;;;;;;;16.99;52.38;102402.28;5062508;28;20027;-55
2022/10/06 10:27:52;;;;;;;;;;;;;;;17.00;52.32;102395.16;5063949;28;20668;-53
2022/10/06 10:30:17;;;;;;;;;;;;;;;17.01;52.55;102392.44;5064750;28;19920;-54
2022/10/06 10:32:48;;;;;;;;;;;;;;;17.03;51.84;102409.13;5062046;28;19928;-55
2022/10/06 10:35:17;;;;;;;;;;;;;;;17.05;52.01;102419.69;5066391;28;19920;-53
2022/10/06 10:37:50;;;;;;;;;;;;;;;17.06;51.58;102414.28;5065833;28;20289;-53
2022/10/06 10:40:31;;;;;;;;;;;;;;;17.08;51.49;102405.34;5068783;28;20446;-54
2022/10/06 10:42:56;;;;;;;;;;;;;;;17.11;52.05;102415.81;5062631;28;20396;-54
2022/10/06 10:45:26;;;;;;;;;;;;;;;17.12;52.11;102409.53;5067080;28;19912;-56
2022/10/06 10:47:52;;;;;;;;;;;;;;;17.11;51.98;102407.84;5063927;28;20378;-54
2022/10/06 10:50:36;;;;;;;;;;;;;;;17.13;52.01;102414.75;5068415;28;20014;-56
2022/10/06 10:53:13;;;;;;;;;;;;;;;17.19;51.53;102416.19;5066153;28;19916;-55
2022/10/06 10:55:44;;;;;;;;;;;;;;;17.20;51.12;102409.94;5062305;28;20385;-56
2022/10/06 10:58:19;;;;;;;;;;;;;;;17.21;50.79;102416.97;5064801;28;20340;-56
2022/10/06 11:00:47;;;;;;;;;;;;;;;17.24;50.94;102421.28;5065340;28;19920;-56
2022/10/06 11:03:12;;;;;;;;;;;;;;;17.26;51.17;102425.53;5062551;28;19946;-55
2022/10/06 11:05:41;;;;;;;;;;;;;;;17.27;51.40;102429.03;5066139;28;19961;-53
2022/10/06 11:08:10;;;;;;;;;;;;;;;17.29;51.26;102436.00;5059998;28;20054;-53
2022/10/06 11:10:57;;;;;;;;;;;;;;;17.32;51.50;102430.47;5064404;28;20002;-54
2022/10/06 11:13:25;;;;;;;;;;;;;;;17.37;51.50;102425.75;5064915;28;19924;-53
2022/10/06 11:16:10;;;;;;;;;;;;;;;17.40;51.26;102426.53;5063131;28;20028;-52
2022/10/06 11:18:54;;;;;;;;;;;;;;;17.44;51.06;102446.69;5065704;28;19968;-54
2022/10/06 11:21:29;;;;;;;;;;;;;;;17.41;50.62;102453.03;5065935;28;20001;-55
2022/10/06 11:24:14;;;;;;;;;;;;;;;17.43;50.80;102452.94;5062223;28;19929;-54
2022/10/06 11:26:47;;;;;;;;;;;;;;;17.45;50.78;102457.22;5065361;28;19939;-54
2022/10/06 11:29:12;;;;;;;;;;;;;;;17.48;50.60;102456.16;5067219;28;19920;-56
2022/10/06 11:32:07;;;;;;;;;;;;;;;17.51;50.83;102461.31;5056722;28;19955;-52
2022/10/06 11:34:32;;;;;;;;;;;;;;;17.56;50.14;102459.25;5005476;28;20516;-55
2022/10/06 11:36:57;;;;;;;;;;;;;;;17.62;50.19;102466.00;5062746;28;19928;-56
2022/10/06 11:39:29;;;;;;;;;;;;;;;17.65;49.96;102472.00;5068791;28;20284;-54
2022/10/06 11:42:18;;;;;;;;;;;;;;;17.68;50.29;102473.63;5067218;28;20371;-53
2022/10/06 11:44:46;;;;;;;;;;;;;;;17.70;49.78;102469.03;5065177;28;20013;-55
2022/10/06 11:47:19;;;;;;;;;;;;;;;17.70;49.92;102471.69;5066758;28;20449;-54
2022/10/06 11:49:50;;;;;;;;;;;;;;;17.66;49.68;102465.72;5069650;28;19923;-56
2022/10/06 11:52:15;;;;;;;;;;;;;;;17.64;49.95;102478.25;5069583;28;19916;-52
2022/10/06 11:54:46;;;;;;;;;;;;;;;17.64;49.82;102480.06;5063323;28;19921;-55
2022/10/06 11:57:21;;;;;;;;;;;;;;;17.67;49.88;102466.59;5068366;28;19931;-55
2022/10/06 11:59:47;;;;;;;;;;;;;;;17.71;49.55;102476.06;5070003;28;19923;-52
2022/10/06 12:02:30;;;;;;;;;;;;;;;17.77;49.68;102465.06;5062166;28;20015;-54
2022/10/06 12:05:08;;;;;;;;;;;;;;;17.84;49.72;102465.53;5067708;28;19920;-54
2022/10/06 12:07:57;;;;;;;;;;;;;;;17.92;49.66;102473.91;5068246;28;20289;-54
2022/10/06 12:10:28;;;;;;;;;;;;;;;17.98;49.32;102481.56;5063310;28;19929;-53
2022/10/06 12:13:12;;;;;;;;;;;;;;;18.02;49.24;102489.38;5066124;28;19924;-53
2022/10/06 12:15:43;;;;;;;;;;;;;;;18.02;49.10;102481.38;5064342;28;19935;-54
2022/10/06 12:18:15;;;;;;;;;;;;;;;18.05;48.77;102486.53;5069268;28;20378;-54
2022/10/06 12:20:56;;;;;;;;;;;;;;;18.07;48.92;102498.78;5061879;28;20040;-56
2022/10/06 12:23:40;;;;;;;;;;;;;;;18.08;48.83;102499.63;5061180;28;19923;-53
2022/10/06 12:26:11;;;;;;;;;;;;;;;18.09;48.64;102493.34;5062655;28;19928;-54
2022/10/06 12:28:46;;;;;;;;;;;;;;;18.08;48.65;102481.84;5061214;28;19920;-54
2022/10/06 12:31:33;;;;;;;;;;;;;;;18.10;49.02;102492.41;5064388;28;20449;-53
2022/10/06 12:33:58;;;;;;;;;;;;;;;18.13;48.58;102500.22;5059561;28;19951;-54
2022/10/06 12:36:25;;;;;;;;;;;;;;;18.11;48.36;102495.00;5069151;28;20363;-53
2022/10/06 12:39:03;;;;;;;;;;;;;;;18.09;48.64;102499.56;5064894;28;20360;-53
2022/10/06 12:41:47;;;;;;;;;;;;;;;18.11;48.37;102502.97;5067180;28;19916;-53
2022/10/06 12:44:21;;;;;;;;;;;;;;;18.12;48.14;102515.34;5066707;28;19916;-56
2022/10/06 12:46:48;;;;;;;;;;;;;;;18.13;48.19;102510.88;5065611;28;19923;-54
2022/10/06 12:49:23;;;;;;;;;;;;;;;18.13;48.42;102509.06;5068336;28;20015;-53
2022/10/06 12:51:50;;;;;;;;;;;;;;;18.15;48.34;102516.97;5066494;28;19917;-55
2022/10/06 12:54:24;;;;;;;;;;;;;;;18.14;48.26;102523.22;5068733;28;20309;-53
2022/10/06 12:57:08;;;;;;;;;;;;;;;18.12;48.18;102515.34;5063651;28;19977;-55